Time;durP1;ratioP1;P1;durP2;ratioP2;P2;SDS_P1;SDS_P2;PMS_P1;PMS_P2;Temp;Humidity;BMP_temperature;BMP_pressure;BME280_temperature;BME280_humidity;BME280_pressure;Samples;Min_cycle;Max_cycle;Signal;HPM_P1;HPM_P2
2024/04/25 00:00:34;;;;;;;0.20;0.20;;;5.30;87.20;;;;;;5136165;27;20038;-74
2024/04/25 00:03:00;;;;;;;0.10;0.10;;;5.40;87.30;;;;;;5120746;27;20486;-74
2024/04/25 00:05:26;;;;;;;0.10;0.10;;;5.40;87.30;;;;;;5138009;27;20105;-73
2024/04/25 00:07:51;;;;;;;0.20;0.20;;;5.40;87.30;;;;;;5137836;27;20486;-73
2024/04/25 00:10:17;;;;;;;0.10;0.10;;;5.30;87.30;;;;;;5120539;27;20546;-73
2024/04/25 00:12:43;;;;;;;0.10;0.10;;;5.40;87.30;;;;;;5120467;27;20039;-74
2024/04/25 00:15:09;;;;;;;0.20;0.20;;;5.30;87.30;;;;;;5156613;27;20127;-73
2024/04/25 00:17:36;;;;;;;0.25;0.20;;;5.30;87.30;;;;;;5155999;27;20099;-73
2024/04/25 00:20:02;;;;;;;0.10;0.10;;;5.30;87.50;;;;;;5156092;27;20043;-74
2024/04/25 00:22:28;;;;;;;0.10;0.10;;;5.20;87.50;;;;;;5137328;27;20061;-74
2024/04/25 00:24:54;;;;;;;0.10;0.10;;;5.10;87.60;;;;;;5120308;27;20027;-73
2024/04/25 00:27:20;;;;;;;0.15;0.15;;;5.00;87.70;;;;;;5137339;27;20034;-73
2024/04/25 00:29:45;;;;;;;0.15;0.15;;;5.10;87.90;;;;;;5156341;27;20034;-73
2024/04/25 00:32:11;;;;;;;0.20;0.20;;;5.00;87.90;;;;;;5156177;27;20042;-73
2024/04/25 00:34:37;;;;;;;0.10;0.10;;;4.90;88.00;;;;;;5137043;27;20053;-73
2024/04/25 00:37:02;;;;;;;0.17;0.15;;;4.90;88.10;;;;;;5119930;27;20043;-74
2024/04/25 00:39:28;;;;;;;0.05;0.05;;;4.90;88.20;;;;;;5155955;27;20440;-72
2024/04/25 00:41:54;;;;;;;0.20;0.10;;;4.80;88.20;;;;;;5137313;27;20039;-73
2024/04/25 00:44:20;;;;;;;0.10;0.10;;;4.80;88.30;;;;;;5155862;27;20023;-73
2024/04/25 00:46:47;;;;;;;0.10;0.10;;;4.70;88.30;;;;;;5155421;27;20393;-74
2024/04/25 00:49:14;;;;;;;0.10;0.10;;;4.70;88.30;;;;;;5155553;27;20039;-72
2024/04/25 00:51:40;;;;;;;0.20;0.20;;;4.70;88.40;;;;;;5155997;27;20385;-73
2024/04/25 00:54:06;;;;;;;0.20;0.20;;;4.60;88.40;;;;;;5155999;27;20035;-73
2024/04/25 00:56:32;;;;;;;0.10;0.10;;;4.60;88.40;;;;;;5119540;27;20058;-72
2024/04/25 00:59:00;;;;;;;0.20;0.20;;;4.60;88.40;;;;;;5155489;27;20031;-74
2024/04/25 01:01:27;;;;;;;0.20;0.20;;;4.60;88.50;;;;;;5137111;27;20043;-73
2024/04/25 01:04:00;;;;;;;0.10;0.10;;;4.50;88.50;;;;;;5136827;27;20095;-73
2024/04/25 01:06:32;;;;;;;0.10;0.10;;;4.50;88.60;;;;;;5137081;27;20038;-73
2024/04/25 01:08:58;;;;;;;0.10;0.10;;;4.40;88.50;;;;;;5103163;27;20493;-72
2024/04/25 01:11:26;;;;;;;0.10;0.10;;;4.40;88.50;;;;;;5136411;27;20486;-73
2024/04/25 01:13:53;;;;;;;0.38;0.17;;;4.40;88.50;;;;;;5136140;27;20034;-73
2024/04/25 01:16:19;;;;;;;0.20;0.20;;;4.40;88.60;;;;;;5155068;27;20043;-73
2024/04/25 01:18:45;;;;;;;0.25;0.25;;;4.40;88.60;;;;;;5154918;27;20077;-74
2024/04/25 01:21:11;;;;;;;0.20;0.20;;;4.40;88.60;;;;;;5155606;27;20031;-73
2024/04/25 01:23:43;;;;;;;0.20;0.20;;;4.30;88.50;;;;;;5136408;27;20071;-73
2024/04/25 01:26:11;;;;;;;0.15;0.15;;;4.40;88.60;;;;;;5155489;27;20095;-73
2024/04/25 01:28:40;;;;;;;0.52;0.30;;;4.30;88.50;;;;;;5155192;27;20185;-74
2024/04/25 01:31:07;;;;;;;0.20;0.20;;;4.30;88.50;;;;;;5155017;27;20485;-73
2024/04/25 01:33:37;;;;;;;0.20;0.20;;;4.30;88.60;;;;;;5102297;27;20154;-74
2024/04/25 01:36:03;;;;;;;0.35;0.32;;;4.30;88.50;;;;;;5136166;27;20374;-74
2024/04/25 01:38:30;;;;;;;0.65;0.20;;;4.20;89.10;;;;;;5155132;27;20034;-74
2024/04/25 01:40:55;;;;;;;0.47;0.38;;;4.30;88.50;;;;;;5154679;27;20486;-73
2024/04/25 01:43:21;;;;;;;0.20;0.20;;;4.20;88.40;;;;;;5154938;27;20041;-73
2024/04/25 01:45:47;;;;;;;0.20;0.20;;;4.20;88.50;;;;;;5154573;27;20050;-73
2024/04/25 01:48:13;;;;;;;0.30;0.30;;;4.20;88.50;;;;;;5154455;27;20037;-73
2024/04/25 01:50:39;;;;;;;0.50;0.35;;;4.20;88.50;;;;;;5154632;27;20160;-73
2024/04/25 01:53:05;;;;;;;0.35;0.28;;;4.20;88.50;;;;;;5136201;27;20133;-74
2024/04/25 01:55:31;;;;;;;0.43;0.40;;;4.10;88.40;;;;;;5155078;27;20034;-72
2024/04/25 01:57:56;;;;;;;0.40;0.30;;;4.10;88.50;;;;;;5135927;27;20038;-74
2024/04/25 02:00:22;;;;;;;0.38;0.30;;;4.10;88.50;;;;;;5135757;27;20034;-73
2024/04/25 02:02:47;;;;;;;0.25;0.25;;;4.10;88.50;;;;;;5154952;27;20401;-73
2024/04/25 02:05:14;;;;;;;0.32;0.30;;;4.00;88.50;;;;;;5154799;27;20031;-72
2024/04/25 02:07:39;;;;;;;0.60;0.40;;;4.10;88.60;;;;;;5135801;27;20039;-73
2024/04/25 02:10:06;;;;;;;0.25;0.25;;;4.00;88.50;;;;;;5154274;27;20030;-73
2024/04/25 02:12:31;;;;;;;0.30;0.30;;;4.00;88.50;;;;;;5154705;27;20042;-72
2024/04/25 02:15:00;;;;;;;0.63;0.38;;;4.00;88.60;;;;;;5135103;27;20478;-72
2024/04/25 02:17:26;;;;;;;0.28;0.28;;;4.00;88.60;;;;;;5135280;27;20076;-73
2024/04/25 02:19:52;;;;;;;0.40;0.30;;;4.00;88.60;;;;;;5154547;27;20508;-73
2024/04/25 02:27:35;;;;;;;0.40;0.30;;;3.80;88.60;;;;;;5135977;27;20047;-72
2024/04/25 02:30:01;;;;;;;0.63;0.40;;;3.90;88.60;;;;;;5135659;27;20038;-72
2024/04/25 02:32:27;;;;;;;0.35;0.28;;;3.90;88.60;;;;;;5135413;27;20469;-73
2024/04/25 02:35:06;;;;;;;0.20;0.20;;;3.90;88.60;;;;;;5133757;27;20076;-74
2024/04/25 02:37:32;;;;;;;0.38;0.32;;;3.90;88.70;;;;;;5135142;27;20418;-73
2024/04/25 02:39:58;;;;;;;0.20;0.20;;;4.00;88.60;;;;;;5134353;27;20134;-73
2024/04/25 02:42:24;;;;;;;0.40;0.30;;;4.00;88.50;;;;;;5153715;27;20038;-73
2024/04/25 02:44:49;;;;;;;0.20;0.20;;;4.00;88.40;;;;;;5118003;27;20147;-73
2024/04/25 02:47:15;;;;;;;0.20;0.20;;;4.00;88.40;;;;;;5118158;27;20102;-73
2024/04/25 02:49:41;;;;;;;0.85;0.30;;;4.00;88.30;;;;;;5133962;27;20130;-73
2024/04/25 02:52:07;;;;;;;0.30;0.30;;;4.00;88.20;;;;;;5153785;27;20049;-72
2024/04/25 02:54:33;;;;;;;0.20;0.20;;;4.10;88.20;;;;;;5135240;27;20126;-72
2024/04/25 02:57:03;;;;;;;0.32;0.30;;;4.10;88.20;;;;;;5100614;27;20039;-72
2024/04/25 02:59:31;;;;;;;0.35;0.20;;;4.10;88.20;;;;;;5153998;27;20146;-72
2024/04/25 03:01:57;;;;;;;0.10;0.10;;;4.10;88.20;;;;;;5116989;27;20043;-73
2024/04/25 03:04:22;;;;;;;0.17;0.17;;;4.10;88.20;;;;;;5154115;27;20038;-73
2024/04/25 03:06:48;;;;;;;0.10;0.10;;;4.00;88.20;;;;;;5153348;27;20380;-73
2024/04/25 03:09:14;;;;;;;0.20;0.20;;;4.10;88.20;;;;;;5153818;27;20538;-72
2024/04/25 03:11:40;;;;;;;0.25;0.25;;;4.00;88.20;;;;;;5134866;27;20113;-72
2024/04/25 03:14:06;;;;;;;0.47;0.28;;;4.00;88.30;;;;;;5135062;27;20045;-73
2024/04/25 03:16:32;;;;;;;0.20;0.20;;;4.00;88.30;;;;;;5135440;27;20031;-74
2024/04/25 03:18:58;;;;;;;0.10;0.10;;;4.00;88.40;;;;;;5100932;27;20145;-74
2024/04/25 03:21:24;;;;;;;0.30;0.20;;;4.00;88.50;;;;;;5134579;27;20066;-73
2024/04/25 03:23:49;;;;;;;0.28;0.28;;;4.00;88.40;;;;;;5135113;27;20129;-73
2024/04/25 03:26:15;;;;;;;0.38;0.38;;;4.00;88.50;;;;;;5134608;27;20079;-73
2024/04/25 03:28:41;;;;;;;0.15;0.15;;;3.90;88.50;;;;;;5134873;27;20099;-74
2024/04/25 03:31:14;;;;;;;0.22;0.20;;;3.90;88.50;;;;;;5134650;27;20561;-73
2024/04/25 03:33:40;;;;;;;0.47;0.20;;;3.90;88.50;;;;;;5117572;27;20807;-74
2024/04/25 03:36:06;;;;;;;0.28;0.25;;;3.90;88.60;;;;;;5137727;27;20035;-74
2024/04/25 03:38:31;;;;;;;0.35;0.20;;;3.90;88.60;;;;;;5121070;27;20428;-74
2024/04/25 03:40:57;;;;;;;0.20;0.20;;;3.90;88.60;;;;;;5156475;27;20038;-73
2024/04/25 03:43:23;;;;;;;0.17;0.17;;;3.90;88.60;;;;;;5120701;27;20045;-73
2024/04/25 03:45:48;;;;;;;0.20;0.20;;;3.90;88.50;;;;;;5103065;27;20125;-73
2024/04/25 03:48:14;;;;;;;0.20;0.20;;;3.90;88.50;;;;;;5156594;27;20035;-73
2024/04/25 03:50:40;;;;;;;0.28;0.20;;;4.00;88.50;;;;;;5138068;27;20046;-74
2024/04/25 03:53:05;;;;;;;0.52;0.30;;;4.00;88.40;;;;;;5156427;27;20042;-74
2024/04/25 03:55:31;;;;;;;0.30;0.30;;;4.00;88.40;;;;;;5157140;27;20039;-73
2024/04/25 03:57:57;;;;;;;0.35;0.22;;;3.90;88.30;;;;;;5137993;27;20042;-73
2024/04/25 04:00:22;;;;;;;0.20;0.20;;;4.00;88.40;;;;;;5156385;27;20129;-74
2024/04/25 04:02:48;;;;;;;0.22;0.22;;;3.90;88.40;;;;;;5157098;27;20039;-73
2024/04/25 04:05:14;;;;;;;0.20;0.15;;;4.00;88.50;;;;;;5157008;27;20528;-73
2024/04/25 04:07:42;;;;;;;0.10;0.10;;;3.90;88.50;;;;;;5156952;27;20035;-74
2024/04/25 04:10:11;;;;;;;0.52;0.20;;;3.90;88.50;;;;;;5156863;27;20414;-74
2024/04/25 04:12:36;;;;;;;0.75;0.20;;;3.90;88.60;;;;;;5137671;27;20039;-74
2024/04/25 04:15:05;;;;;;;0.25;0.22;;;3.90;88.60;;;;;;5156059;27;20129;-74
2024/04/25 04:17:31;;;;;;;0.68;0.10;;;3.80;88.70;;;;;;5156107;27;20047;-74
2024/04/25 04:19:57;;;;;;;0.47;0.20;;;3.80;88.70;;;;;;5121002;27;20041;-73
2024/04/25 04:22:23;;;;;;;0.20;0.20;;;3.80;88.70;;;;;;5137803;27;20034;-73
2024/04/25 04:24:49;;;;;;;1.55;0.20;;;3.80;88.70;;;;;;5156325;27;20039;-73
2024/04/25 04:27:14;;;;;;;0.10;0.10;;;3.90;88.80;;;;;;5155945;27;20034;-74
2024/04/25 04:29:40;;;;;;;0.75;0.20;;;3.80;88.80;;;;;;5156020;27;20069;-74
2024/04/25 04:32:06;;;;;;;0.30;0.20;;;3.80;88.70;;;;;;5155819;27;20035;-73
2024/04/25 04:34:31;;;;;;;0.20;0.20;;;3.80;88.70;;;;;;5135921;27;20402;-73
2024/04/25 04:36:57;;;;;;;0.17;0.10;;;3.80;88.70;;;;;;5155959;27;20038;-73
2024/04/25 04:39:23;;;;;;;0.30;0.30;;;3.80;88.70;;;;;;5136325;27;20158;-73
2024/04/25 04:41:48;;;;;;;0.50;0.35;;;3.80;88.70;;;;;;5137576;27;20103;-73
2024/04/25 04:44:24;;;;;;;0.20;0.20;;;3.90;88.70;;;;;;5155826;27;20039;-74
2024/04/25 04:46:50;;;;;;;0.20;0.20;;;3.90;88.70;;;;;;5135739;27;20035;-74
2024/04/25 04:49:16;;;;;;;0.20;0.20;;;3.90;88.60;;;;;;5155673;27;20178;-74
2024/04/25 04:51:42;;;;;;;0.20;0.20;;;4.00;88.50;;;;;;5137892;27;20035;-74
2024/04/25 04:54:07;;;;;;;0.28;0.20;;;4.00;88.40;;;;;;5156191;27;20042;-74
2024/04/25 04:56:33;;;;;;;0.10;0.10;;;4.00;88.40;;;;;;5155763;27;20094;-73
2024/04/25 04:58:58;;;;;;;0.30;0.28;;;4.10;88.40;;;;;;5155273;27;20043;-73
2024/04/25 05:01:24;;;;;;;0.20;0.20;;;4.10;88.30;;;;;;5156030;27;20122;-74
2024/04/25 05:03:50;;;;;;;0.20;0.20;;;4.20;88.30;;;;;;5155542;27;20137;-73
2024/04/25 05:06:16;;;;;;;0.17;0.17;;;4.20;88.20;;;;;;5120364;27;20049;-74
2024/04/25 05:08:44;;;;;;;0.10;0.10;;;4.30;88.20;;;;;;5118964;27;20039;-74
2024/04/25 05:11:10;;;;;;;0.20;0.20;;;4.30;88.10;;;;;;5155409;27;20035;-73
2024/04/25 05:13:36;;;;;;;0.65;0.30;;;4.40;88.10;;;;;;5119583;27;20087;-74
2024/04/25 05:16:02;;;;;;;0.20;0.20;;;4.50;88.00;;;;;;5136640;27;20050;-74
2024/04/25 05:18:27;;;;;;;0.20;0.20;;;4.40;87.90;;;;;;5155188;27;20061;-74
2024/04/25 05:20:53;;;;;;;0.32;0.25;;;4.50;87.90;;;;;;5155727;27;20462;-74
2024/04/25 05:23:19;;;;;;;0.20;0.20;;;4.60;87.90;;;;;;5154999;27;20042;-74
2024/04/25 05:25:44;;;;;;;0.60;0.35;;;4.60;87.80;;;;;;5136822;27;20037;-73
2024/04/25 05:28:10;;;;;;;0.20;0.20;;;4.70;87.90;;;;;;5135555;27;20494;-73
2024/04/25 05:30:36;;;;;;;0.25;0.25;;;4.70;87.80;;;;;;5155191;27;20038;-73
2024/04/25 05:33:03;;;;;;;0.25;0.25;;;4.70;87.70;;;;;;5155050;27;20051;-74
2024/04/25 05:35:29;;;;;;;0.40;0.30;;;4.80;87.80;;;;;;5155313;27;20038;-74
2024/04/25 05:37:56;;;;;;;0.35;0.30;;;4.80;87.70;;;;;;5136411;27;20034;-73
2024/04/25 05:40:22;;;;;;;0.52;0.50;;;4.90;87.70;;;;;;5136422;27;20053;-74
2024/04/25 05:42:47;;;;;;;1.27;0.50;;;4.90;87.60;;;;;;5135660;27;20046;-73
2024/04/25 05:45:13;;;;;;;1.02;0.40;;;5.00;87.60;;;;;;5154950;27;20110;-74
2024/04/25 05:47:39;;;;;;;0.57;0.28;;;5.00;87.60;;;;;;5119147;27;20046;-74
2024/04/25 05:50:05;;;;;;;0.40;0.30;;;5.00;87.60;;;;;;5102224;27;20504;-74
2024/04/25 05:52:31;;;;;;;0.75;0.28;;;5.10;87.70;;;;;;5155468;27;20042;-73
2024/04/25 05:54:57;;;;;;;0.32;0.32;;;5.20;87.70;;;;;;5119120;27;20034;-74
2024/04/25 05:57:23;;;;;;;0.30;0.30;;;5.20;87.60;;;;;;5153931;27;20153;-74
2024/04/25 05:59:49;;;;;;;0.50;0.47;;;5.30;87.60;;;;;;5154828;27;20035;-74
2024/04/25 06:02:14;;;;;;;0.30;0.30;;;5.30;87.50;;;;;;5134839;27;20043;-74
2024/04/25 06:04:40;;;;;;;1.23;0.30;;;5.30;87.50;;;;;;5154705;27;20046;-74
2024/04/25 06:07:06;;;;;;;0.35;0.30;;;5.30;87.40;;;;;;5154643;27;20039;-74
2024/04/25 06:09:32;;;;;;;0.57;0.38;;;5.40;87.50;;;;;;5134693;27;20043;-74
2024/04/25 06:11:58;;;;;;;0.32;0.30;;;5.40;87.50;;;;;;5135868;27;20516;-74
2024/04/25 06:14:23;;;;;;;0.38;0.30;;;5.50;87.60;;;;;;5136132;27;20038;-74
2024/04/25 06:16:49;;;;;;;0.40;0.40;;;5.50;87.70;;;;;;5154549;27;20257;-74
2024/04/25 06:19:15;;;;;;;1.00;0.55;;;5.50;87.70;;;;;;5134544;27;20031;-74
2024/04/25 06:21:41;;;;;;;0.55;0.40;;;5.50;87.70;;;;;;5135710;27;20047;-74
2024/04/25 06:24:07;;;;;;;1.48;0.50;;;5.50;87.70;;;;;;5118642;27;20053;-74
2024/04/25 06:26:33;;;;;;;1.05;0.73;;;5.60;87.80;;;;;;5154320;27;20482;-73
2024/04/25 06:28:59;;;;;;;1.40;0.80;;;5.50;88.30;;;;;;5134061;27;20063;-73
2024/04/25 06:31:25;;;;;;;1.02;0.50;;;5.50;87.70;;;;;;5153846;27;20069;-73
2024/04/25 06:33:59;;;;;;;0.80;0.38;;;5.60;87.80;;;;;;5153940;27;20053;-73
2024/04/25 06:36:26;;;;;;;0.47;0.40;;;5.60;87.80;;;;;;5154487;27;20035;-73
2024/04/25 06:38:51;;;;;;;0.43;0.30;;;5.60;87.80;;;;;;5134918;27;20043;-73
2024/04/25 06:41:17;;;;;;;0.50;0.40;;;5.70;87.80;;;;;;5135348;27;20133;-74
2024/04/25 06:43:43;;;;;;;0.63;0.45;;;5.70;87.80;;;;;;5153951;27;20832;-73
2024/04/25 06:46:08;;;;;;;0.70;0.50;;;5.80;87.90;;;;;;5134978;27;20043;-73
2024/04/25 06:48:34;;;;;;;0.40;0.40;;;5.80;87.90;;;;;;5135243;27;20501;-74
2024/04/25 06:51:02;;;;;;;0.75;0.40;;;5.90;87.90;;;;;;5135543;27;20037;-73
2024/04/25 06:53:28;;;;;;;1.17;0.52;;;5.90;88.40;;;;;;5135405;27;20050;-74
2024/04/25 06:55:54;;;;;;;0.82;0.50;;;6.00;87.80;;;;;;5154239;27;20047;-73
2024/04/25 06:58:20;;;;;;;0.30;0.30;;;6.00;87.70;;;;;;5116983;27;20047;-74
2024/04/25 07:00:46;;;;;;;1.50;0.57;;;6.00;88.20;;;;;;5101243;27;20512;-74
2024/04/25 07:03:14;;;;;;;0.60;0.30;;;6.10;87.70;;;;;;5117676;27;20486;-74
2024/04/25 07:05:39;;;;;;;1.08;0.47;;;6.10;87.70;;;;;;5153635;27;20031;-75
2024/04/25 07:08:05;;;;;;;0.43;0.40;;;6.20;87.70;;;;;;5153555;27;20401;-74
2024/04/25 07:10:31;;;;;;;0.90;0.35;;;6.30;87.50;;;;;;5100658;27;20051;-76
2024/04/25 07:12:56;;;;;;;0.47;0.40;;;6.30;87.30;;;;;;5143365;27;20097;-75
2024/04/25 07:15:24;;;;;;;0.55;0.55;;;6.30;87.20;;;;;;5118117;27;20047;-75
2024/04/25 07:17:53;;;;;;;0.38;0.35;;;6.30;87.20;;;;;;5157392;27;20394;-76
2024/04/25 07:20:18;;;;;;;0.30;0.30;;;6.40;87.40;;;;;;5119817;27;20154;-75
2024/04/25 07:22:44;;;;;;;0.73;0.40;;;6.40;87.40;;;;;;5103393;27;20074;-75
2024/04/25 07:25:12;;;;;;;0.50;0.40;;;6.40;87.40;;;;;;5096148;28;20047;-75
2024/04/25 07:27:40;;;;;;;0.40;0.40;;;6.50;87.40;;;;;;5091079;28;20044;-76
2024/04/25 07:30:06;;;;;;;0.77;0.40;;;6.50;87.30;;;;;;5051334;28;20033;-76
2024/04/25 07:32:33;;;;;;;0.65;0.40;;;6.70;87.30;;;;;;5037092;28;20114;-74
2024/04/25 07:35:01;;;;;;;1.13;0.63;;;6.80;87.10;;;;;;5072663;28;20551;-75
2024/04/25 07:37:31;;;;;;;0.47;0.47;;;6.80;87.00;;;;;;5043126;28;20138;-75
2024/04/25 07:39:58;;;;;;;0.80;0.40;;;6.80;87.00;;;;;;5058585;28;20040;-76
2024/04/25 07:42:24;;;;;;;0.65;0.45;;;6.90;87.00;;;;;;5076580;28;20045;-76
2024/04/25 07:44:54;;;;;;;0.75;0.50;;;7.00;87.00;;;;;;5043749;28;20496;-75
2024/04/25 07:47:40;;;;;;;0.50;0.50;;;7.10;86.80;;;;;;5022767;28;20045;-75
2024/04/25 07:50:08;;;;;;;0.75;0.50;;;7.30;86.70;;;;;;5020276;28;20086;-75
2024/04/25 07:52:34;;;;;;;0.52;0.43;;;7.30;86.50;;;;;;5033756;28;20057;-75
2024/04/25 07:55:02;;;;;;;0.47;0.47;;;7.30;86.40;;;;;;5042090;28;20049;-74
2024/04/25 07:57:28;;;;;;;1.08;0.65;;;7.40;86.40;;;;;;5076459;28;20048;-75
2024/04/25 07:59:55;;;;;;;0.55;0.47;;;7.30;86.40;;;;;;5062969;28;20047;-75
2024/04/25 08:02:21;;;;;;;0.82;0.40;;;7.50;86.40;;;;;;5081063;28;20043;-76
2024/04/25 08:04:48;;;;;;;1.38;0.50;;;7.60;86.30;;;;;;5060375;28;20059;-75
2024/04/25 08:07:17;;;;;;;0.43;0.43;;;7.50;86.20;;;;;;5082729;28;20054;-75
2024/04/25 08:09:43;;;;;;;0.40;0.40;;;7.60;86.30;;;;;;5076517;28;20543;-74
2024/04/25 08:12:08;;;;;;;0.80;0.50;;;7.60;86.30;;;;;;5138530;27;20043;-74
2024/04/25 08:14:34;;;;;;;0.55;0.40;;;7.70;86.30;;;;;;5119922;27;20054;-74
2024/04/25 08:17:00;;;;;;;1.63;0.50;;;8.00;86.30;;;;;;5135357;27;20043;-75
2024/04/25 08:19:27;;;;;;;0.20;0.20;;;7.90;86.10;;;;;;5153536;27;20536;-74
2024/04/25 08:21:52;;;;;;;1.05;0.40;;;8.00;86.10;;;;;;5136857;27;20047;-74
2024/04/25 08:24:20;;;;;;;0.50;0.43;;;8.20;86.00;;;;;;5146990;27;20062;-76
2024/04/25 08:26:46;;;;;;;0.35;0.35;;;8.40;85.70;;;;;;5141295;27;20084;-75
2024/04/25 08:29:12;;;;;;;0.38;0.38;;;8.60;85.30;;;;;;5130408;27;20047;-75
2024/04/25 08:31:38;;;;;;;0.75;0.38;;;8.70;85.10;;;;;;5162089;27;20039;-75
2024/04/25 08:34:04;;;;;;;0.30;0.30;;;8.90;85.00;;;;;;5139391;27;20035;-75
2024/04/25 08:36:29;;;;;;;0.40;0.40;;;9.20;84.80;;;;;;5124036;27;20035;-75
2024/04/25 08:38:55;;;;;;;1.83;0.52;;;9.30;84.30;;;;;;5107796;27;20041;-76
2024/04/25 08:41:22;;;;;;;0.70;0.40;;;9.40;84.00;;;;;;5104802;27;20039;-73
2024/04/25 08:43:48;;;;;;;0.75;0.40;;;9.40;83.80;;;;;;5135764;27;20054;-72
2024/04/25 08:46:16;;;;;;;0.45;0.45;;;9.50;83.80;;;;;;5137448;27;20034;-74
2024/04/25 08:48:44;;;;;;;1.02;0.60;;;9.40;83.70;;;;;;5156305;27;20050;-74
2024/04/25 08:51:13;;;;;;;0.20;0.20;;;9.20;83.80;;;;;;5120554;27;20190;-74
2024/04/25 08:53:39;;;;;;;0.40;0.30;;;9.20;84.10;;;;;;5136770;27;20130;-72
2024/04/25 08:56:07;;;;;;;1.63;0.55;;;9.20;84.30;;;;;;5137081;27;20481;-71
2024/04/25 08:58:33;;;;;;;0.85;0.50;;;9.10;84.40;;;;;;5155772;27;20042;-72
2024/04/25 09:01:00;;;;;;;0.40;0.40;;;9.10;84.40;;;;;;5155854;27;20084;-74
2024/04/25 09:03:28;;;;;;;1.13;0.60;;;9.10;84.40;;;;;;5155464;27;20085;-72
2024/04/25 09:05:53;;;;;;;0.65;0.60;;;8.90;84.60;;;;;;5156241;27;20070;-73
2024/04/25 09:08:19;;;;;;;0.50;0.50;;;8.90;85.00;;;;;;5137468;27;20039;-72
2024/04/25 09:10:45;;;;;;;0.60;0.50;;;8.80;85.10;;;;;;5119943;27;20099;-73
2024/04/25 09:13:12;;;;;;;0.70;0.50;;;8.80;85.30;;;;;;5156001;27;20153;-73
2024/04/25 09:15:40;;;;;;;0.40;0.40;;;8.90;85.30;;;;;;5101054;27;20490;-74
2024/04/25 09:18:07;;;;;;;0.98;0.60;;;8.90;85.30;;;;;;5091511;28;20043;-74
2024/04/25 09:20:36;;;;;;;0.40;0.40;;;8.90;85.10;;;;;;5057692;28;20044;-73
2024/04/25 09:23:03;;;;;;;1.17;0.60;;;9.00;84.90;;;;;;5041336;28;20044;-73
2024/04/25 09:25:29;;;;;;;0.50;0.50;;;9.10;84.80;;;;;;5074762;28;20062;-74
2024/04/25 09:27:58;;;;;;;1.17;0.60;;;9.10;84.60;;;;;;5033995;28;20554;-74
2024/04/25 09:30:24;;;;;;;0.75;0.40;;;9.10;84.60;;;;;;5035501;28;20045;-73
2024/04/25 09:32:50;;;;;;;0.75;0.60;;;9.30;84.70;;;;;;5050966;28;20073;-73
2024/04/25 09:35:16;;;;;;;0.50;0.47;;;9.20;84.50;;;;;;5017954;28;20134;-73
2024/04/25 09:37:43;;;;;;;0.65;0.43;;;9.30;84.50;;;;;;5034276;28;20512;-73
2024/04/25 09:40:09;;;;;;;0.55;0.40;;;9.20;84.40;;;;;;5002049;28;20045;-74
2024/04/25 09:42:35;;;;;;;0.50;0.50;;;9.20;84.50;;;;;;5034403;28;20051;-73
2024/04/25 09:45:04;;;;;;;0.43;0.30;;;9.20;84.50;;;;;;5034705;28;20046;-73
2024/04/25 09:47:35;;;;;;;0.40;0.40;;;9.10;84.50;;;;;;5034780;28;20045;-73
2024/04/25 09:50:11;;;;;;;0.55;0.20;;;9.20;84.70;;;;;;5106023;28;20069;-72
2024/04/25 09:52:44;;;;;;;0.32;0.32;;;9.20;84.60;;;;;;5111825;28;20044;-73
2024/04/25 09:55:22;;;;;;;0.75;0.40;;;9.10;84.50;;;;;;5077702;28;20067;-74
2024/04/25 09:57:53;;;;;;;1.40;0.40;;;9.10;84.60;;;;;;5096254;27;20071;-73
2024/04/25 10:00:19;;;;;;;0.70;0.30;;;9.20;84.60;;;;;;5135264;27;20049;-74
2024/04/25 10:02:47;;;;;;;0.98;0.50;;;9.20;84.50;;;;;;5155046;27;20121;-74
2024/04/25 10:05:13;;;;;;;0.70;0.43;;;9.20;84.40;;;;;;5117886;27;20050;-73
2024/04/25 10:07:40;;;;;;;0.65;0.65;;;9.10;84.40;;;;;;5136275;27;20042;-72
2024/04/25 10:10:07;;;;;;;0.57;0.55;;;9.20;84.40;;;;;;5102250;27;20366;-73
2024/04/25 10:12:33;;;;;;;0.95;0.57;;;9.20;84.30;;;;;;5117659;27;20134;-72
2024/04/25 10:15:06;;;;;;;0.93;0.50;;;9.20;84.20;;;;;;5154432;27;20121;-74
2024/04/25 10:17:34;;;;;;;1.40;0.40;;;9.20;84.00;;;;;;5103921;27;20034;-74
2024/04/25 10:20:00;;;;;;;0.50;0.50;;;9.40;84.00;;;;;;5154650;27;20072;-73
2024/04/25 10:22:29;;;;;;;0.93;0.40;;;9.40;83.80;;;;;;5118553;27;20125;-74
2024/04/25 10:25:01;;;;;;;1.92;0.60;;;9.60;83.60;;;;;;5135327;27;20043;-74
2024/04/25 10:27:27;;;;;;;1.42;0.60;;;9.70;83.40;;;;;;5154530;27;20031;-72
2024/04/25 10:30:02;;;;;;;1.52;0.50;;;9.70;83.10;;;;;;5135862;27;20049;-73
2024/04/25 10:32:27;;;;;;;0.73;0.50;;;9.90;82.80;;;;;;5154807;27;20051;-73
2024/04/25 10:34:53;;;;;;;1.15;0.60;;;9.90;82.50;;;;;;5135910;27;20039;-72
2024/04/25 10:37:20;;;;;;;0.90;0.50;;;9.90;82.30;;;;;;5154781;27;20041;-72
2024/04/25 10:39:46;;;;;;;0.57;0.57;;;9.90;82.30;;;;;;5154079;27;20074;-73
2024/04/25 10:42:16;;;;;;;0.70;0.60;;;9.80;82.40;;;;;;5154397;27;20486;-72
2024/04/25 10:44:43;;;;;;;0.40;0.40;;;9.80;82.30;;;;;;5153876;27;20054;-73
2024/04/25 10:47:09;;;;;;;0.63;0.40;;;9.50;82.50;;;;;;5154444;27;20058;-73
2024/04/25 10:49:35;;;;;;;0.40;0.40;;;9.40;82.90;;;;;;5135314;27;20072;-73
2024/04/25 10:52:05;;;;;;;0.30;0.30;;;9.20;83.20;;;;;;5118507;27;20509;-72
2024/04/25 10:54:31;;;;;;;0.63;0.38;;;9.00;83.60;;;;;;5154426;27;20054;-73
2024/04/25 10:56:57;;;;;;;0.77;0.50;;;8.80;84.00;;;;;;5120910;27;20058;-73
2024/04/25 10:59:30;;;;;;;0.57;0.35;;;8.90;84.40;;;;;;5118071;27;20027;-74
2024/04/25 11:01:59;;;;;;;0.30;0.30;;;8.70;84.40;;;;;;5153658;27;20030;-74
2024/04/25 11:04:35;;;;;;;0.35;0.35;;;8.70;84.70;;;;;;5100621;27;20036;-73
2024/04/25 11:07:02;;;;;;;0.50;0.50;;;8.70;84.80;;;;;;5135447;27;20470;-73
2024/04/25 11:09:27;;;;;;;0.22;0.20;;;8.60;84.70;;;;;;5117580;27;20470;-74
2024/04/25 11:11:53;;;;;;;0.20;0.20;;;8.60;84.60;;;;;;5118191;27;20031;-73
2024/04/25 11:14:19;;;;;;;0.30;0.30;;;8.70;84.60;;;;;;5134972;27;20455;-73
2024/04/25 11:16:45;;;;;;;0.32;0.30;;;8.70;84.50;;;;;;5153731;27;20038;-73
2024/04/25 11:19:11;;;;;;;0.82;0.32;;;8.80;84.30;;;;;;5116978;27;20051;-74
2024/04/25 11:21:39;;;;;;;0.20;0.20;;;8.80;84.20;;;;;;5153731;27;20482;-73
2024/04/25 11:24:14;;;;;;;0.20;0.20;;;8.80;83.90;;;;;;5135171;27;20042;-73
2024/04/25 11:26:40;;;;;;;0.70;0.40;;;8.80;84.30;;;;;;5136450;27;20045;-73
2024/04/25 11:29:09;;;;;;;0.43;0.32;;;8.90;83.70;;;;;;5118643;27;20131;-74
2024/04/25 11:31:36;;;;;;;0.60;0.50;;;8.90;83.70;;;;;;5118083;27;20039;-74
2024/04/25 11:34:04;;;;;;;1.23;0.40;;;8.90;83.60;;;;;;5134735;27;20074;-74
2024/04/25 11:36:33;;;;;;;0.20;0.20;;;9.10;83.70;;;;;;5134768;27;20039;-73
2024/04/25 11:39:02;;;;;;;0.30;0.30;;;8.90;83.60;;;;;;5116843;27;20043;-73
2024/04/25 11:41:28;;;;;;;0.60;0.40;;;8.90;83.60;;;;;;5133627;27;20503;-73
2024/04/25 11:43:54;;;;;;;0.52;0.40;;;8.90;83.50;;;;;;5117525;27;20544;-72
2024/04/25 11:46:21;;;;;;;0.20;0.20;;;9.00;83.40;;;;;;5153660;27;20073;-73
2024/04/25 11:48:49;;;;;;;0.30;0.30;;;9.00;83.10;;;;;;5134927;27;20509;-73
2024/04/25 11:51:15;;;;;;;0.50;0.50;;;9.20;83.00;;;;;;5117507;27;20039;-73
2024/04/25 11:53:41;;;;;;;0.20;0.20;;;9.30;82.60;;;;;;5100774;27;20035;-73
2024/04/25 11:56:21;;;;;;;0.50;0.40;;;9.40;82.20;;;;;;5154501;27;20039;-73
2024/04/25 11:58:47;;;;;;;0.30;0.30;;;9.40;82.00;;;;;;5140304;27;20074;-72
2024/04/25 12:01:12;;;;;;;0.30;0.30;;;9.50;81.80;;;;;;5156477;27;20496;-72
2024/04/25 12:03:38;;;;;;;1.25;0.50;;;9.40;81.60;;;;;;5156849;27;20109;-72
2024/04/25 12:06:06;;;;;;;0.20;0.20;;;9.30;81.40;;;;;;5120947;27;20050;-72
2024/04/25 12:08:32;;;;;;;0.40;0.40;;;9.20;81.50;;;;;;5137991;27;20497;-72
2024/04/25 12:10:58;;;;;;;0.47;0.30;;;9.20;81.70;;;;;;5120929;27;20035;-73
2024/04/25 12:13:23;;;;;;;0.47;0.35;;;9.10;81.80;;;;;;5156395;27;20047;-72
2024/04/25 12:15:49;;;;;;;0.47;0.30;;;9.00;81.80;;;;;;5138041;27;20512;-73
2024/04/25 12:18:15;;;;;;;0.20;0.20;;;9.00;82.00;;;;;;5137992;27;20050;-73
2024/04/25 12:20:40;;;;;;;0.40;0.40;;;8.90;81.90;;;;;;5120959;27;20090;-73
2024/04/25 12:23:07;;;;;;;0.55;0.38;;;8.90;81.90;;;;;;5156759;27;20098;-73
2024/04/25 12:25:33;;;;;;;0.47;0.40;;;8.80;81.80;;;;;;5138326;27;20035;-73
2024/04/25 12:27:59;;;;;;;0.60;0.57;;;8.80;81.90;;;;;;5137791;27;20133;-74
2024/04/25 12:30:24;;;;;;;1.17;0.75;;;8.80;81.90;;;;;;5120924;27;20039;-73
2024/04/25 12:32:50;;;;;;;1.67;0.77;;;8.80;81.90;;;;;;5137757;27;20043;-73
2024/04/25 12:35:16;;;;;;;1.92;0.60;;;8.70;81.80;;;;;;5120729;27;20474;-73
2024/04/25 12:37:42;;;;;;;0.55;0.55;;;8.80;81.90;;;;;;5137780;27;20121;-73
2024/04/25 12:40:08;;;;;;;0.70;0.70;;;8.80;81.90;;;;;;5137542;27;20051;-73
2024/04/25 12:42:33;;;;;;;0.88;0.70;;;8.90;81.80;;;;;;5156325;27;20057;-74
2024/04/25 12:44:59;;;;;;;0.88;0.80;;;9.00;81.50;;;;;;5156263;27;20126;-73
2024/04/25 12:47:24;;;;;;;0.68;0.68;;;9.10;81.40;;;;;;5137238;27;20047;-73
2024/04/25 12:49:50;;;;;;;0.90;0.60;;;9.10;81.70;;;;;;5136188;27;20057;-73
2024/04/25 12:52:16;;;;;;;0.73;0.73;;;9.20;81.00;;;;;;5135487;27;20443;-72
2024/04/25 12:54:41;;;;;;;0.47;0.40;;;9.30;80.80;;;;;;5137078;27;20090;-72
2024/04/25 12:57:10;;;;;;;0.50;0.50;;;9.40;81.30;;;;;;5155540;27;20087;-73
2024/04/25 12:59:35;;;;;;;0.75;0.43;;;9.50;80.50;;;;;;5155957;27;20081;-72